Beechy, Canada
Current Conditions -  °F | °C
As of 4:08 PM on Monday 22 Dec 2014 (Local Time) from CYYN Reporting Station
Light Snow Light Snow  
Wind Chill:   Ceiling: 800
Heat Index: 21°   Visibility: 6mi
Dew Point: 19°   Wind: 15mph
Humidity: 93%   Direction: 310°NW
Pressure: 29.83"   Gusts: 21mph
Location:  50.88°N, 107.38°W
Report Text: CYYN 222208Z AUTO 31013G18KT 6SM -SN BKN008 BKN023 OVC037 M06/M07 A2983 RMK SLP144
Loading
Personal Weather Stations






























Interactive Weather Map New forecast layout! Learn more

10-Day Weather Forecast

Advertisements
Track Severe Weather on mobile